sensor_id;sensor_type;location;lat;lon;timestamp;temperature;humidity
7317;DHT22;3699;51.462;6.696;2023-03-24T00:01:48;12.70;99.90
7317;DHT22;3699;51.462;6.696;2023-03-24T00:04:15;12.80;99.90
7317;DHT22;3699;51.462;6.696;2023-03-24T00:06:41;12.80;99.90
7317;DHT22;3699;51.462;6.696;2023-03-24T00:09:10;12.70;99.90
7317;DHT22;3699;51.462;6.696;2023-03-24T00:11:37;12.80;99.90
7317;DHT22;3699;51.462;6.696;2023-03-24T00:14:04;12.80;99.90
7317;DHT22;3699;51.462;6.696;2023-03-24T00:16:30;12.80;99.90
7317;DHT22;3699;51.462;6.696;2023-03-24T00:18:59;12.70;99.90
7317;DHT22;3699;51.462;6.696;2023-03-24T00:21:26;12.70;99.90
7317;DHT22;3699;51.462;6.696;2023-03-24T00:23:54;12.80;99.90
7317;DHT22;3699;51.462;6.696;2023-03-24T00:26:24;12.80;99.90
7317;DHT22;3699;51.462;6.696;2023-03-24T00:28:53;12.80;99.90
7317;DHT22;3699;51.462;6.696;2023-03-24T00:31:22;12.80;99.90
7317;DHT22;3699;51.462;6.696;2023-03-24T00:33:50;12.80;99.90
7317;DHT22;3699;51.462;6.696;2023-03-24T00:36:18;12.90;99.90
7317;DHT22;3699;51.462;6.696;2023-03-24T00:38:45;12.80;99.90
7317;DHT22;3699;51.462;6.696;2023-03-24T00:41:12;12.80;99.90
7317;DHT22;3699;51.462;6.696;2023-03-24T00:43:43;12.90;99.90
7317;DHT22;3699;51.462;6.696;2023-03-24T00:46:12;12.90;99.90
7317;DHT22;3699;51.462;6.696;2023-03-24T00:48:52;12.90;99.90
7317;DHT22;3699;51.462;6.696;2023-03-24T00:51:22;12.90;99.90
7317;DHT22;3699;51.462;6.696;2023-03-24T00:53:49;12.80;99.90
7317;DHT22;3699;51.462;6.696;2023-03-24T00:56:25;12.90;99.90
7317;DHT22;3699;51.462;6.696;2023-03-24T00:58:54;12.90;99.90
7317;DHT22;3699;51.462;6.696;2023-03-24T01:01:24;12.80;99.90
7317;DHT22;3699;51.462;6.696;2023-03-24T01:03:52;12.80;99.90
7317;DHT22;3699;51.462;6.696;2023-03-24T01:06:18;12.90;99.90
7317;DHT22;3699;51.462;6.696;2023-03-24T01:08:47;12.90;99.90
7317;DHT22;3699;51.462;6.696;2023-03-24T01:11:15;12.80;99.90
7317;DHT22;3699;51.462;6.696;2023-03-24T01:13:42;12.80;99.90
7317;DHT22;3699;51.462;6.696;2023-03-24T01:16:10;12.80;99.90
7317;DHT22;3699;51.462;6.696;2023-03-24T01:18:37;12.80;99.90
7317;DHT22;3699;51.462;6.696;2023-03-24T01:21:06;12.80;99.90
7317;DHT22;3699;51.462;6.696;2023-03-24T01:23:33;12.80;99.90
7317;DHT22;3699;51.462;6.696;2023-03-24T01:26:04;12.80;99.90
7317;DHT22;3699;51.462;6.696;2023-03-24T01:28:31;12.80;99.90
7317;DHT22;3699;51.462;6.696;2023-03-24T01:30:57;12.80;99.90
7317;DHT22;3699;51.462;6.696;2023-03-24T01:33:25;12.80;99.90
7317;DHT22;3699;51.462;6.696;2023-03-24T01:35:52;12.80;99.90
7317;DHT22;3699;51.462;6.696;2023-03-24T01:38:19;12.80;99.90
7317;DHT22;3699;51.462;6.696;2023-03-24T01:40:46;12.80;99.90
7317;DHT22;3699;51.462;6.696;2023-03-24T01:43:17;12.90;99.90
7317;DHT22;3699;51.462;6.696;2023-03-24T01:45:59;12.80;99.90
7317;DHT22;3699;51.462;6.696;2023-03-24T01:48:32;12.80;99.90
7317;DHT22;3699;51.462;6.696;2023-03-24T01:51:03;12.90;99.90
7317;DHT22;3699;51.462;6.696;2023-03-24T01:53:32;12.90;99.90
7317;DHT22;3699;51.462;6.696;2023-03-24T01:56:02;12.80;99.90
7317;DHT22;3699;51.462;6.696;2023-03-24T01:58:31;12.90;99.90
7317;DHT22;3699;51.462;6.696;2023-03-24T02:00:58;12.90;99.90
7317;DHT22;3699;51.462;6.696;2023-03-24T02:03:26;12.90;99.90
7317;DHT22;3699;51.462;6.696;2023-03-24T02:05:56;12.90;99.90
7317;DHT22;3699;51.462;6.696;2023-03-24T02:08:27;13.00;99.90
7317;DHT22;3699;51.462;6.696;2023-03-24T02:10:57;13.00;99.90
7317;DHT22;3699;51.462;6.696;2023-03-24T02:13:24;13.00;99.90
7317;DHT22;3699;51.462;6.696;2023-03-24T02:16:02;13.00;99.90
7317;DHT22;3699;51.462;6.696;2023-03-24T02:18:39;12.90;99.90
7317;DHT22;3699;51.462;6.696;2023-03-24T02:21:37;12.90;99.90
7317;DHT22;3699;51.462;6.696;2023-03-24T02:27:07;12.90;99.90
7317;DHT22;3699;51.462;6.696;2023-03-24T02:33:11;12.90;99.90
7317;DHT22;3699;51.462;6.696;2023-03-24T02:36:14;12.90;99.90
7317;DHT22;3699;51.462;6.696;2023-03-24T02:39:22;12.90;99.90
7317;DHT22;3699;51.462;6.696;2023-03-24T02:42:00;12.90;99.90
7317;DHT22;3699;51.462;6.696;2023-03-24T02:44:39;12.90;99.90
7317;DHT22;3699;51.462;6.696;2023-03-24T02:47:14;12.90;99.90
7317;DHT22;3699;51.462;6.696;2023-03-24T02:49:45;12.90;99.90
7317;DHT22;3699;51.462;6.696;2023-03-24T02:52:17;12.90;99.90
7317;DHT22;3699;51.462;6.696;2023-03-24T02:54:50;13.00;99.90
7317;DHT22;3699;51.462;6.696;2023-03-24T02:57:22;13.00;99.90
7317;DHT22;3699;51.462;6.696;2023-03-24T02:59:58;13.00;99.90
7317;DHT22;3699;51.462;6.696;2023-03-24T03:02:27;13.10;99.90
7317;DHT22;3699;51.462;6.696;2023-03-24T03:04:58;13.10;99.90
7317;DHT22;3699;51.462;6.696;2023-03-24T03:07:30;13.00;99.90
7317;DHT22;3699;51.462;6.696;2023-03-24T03:10:06;13.00;99.90
7317;DHT22;3699;51.462;6.696;2023-03-24T03:12:36;13.10;99.90
7317;DHT22;3699;51.462;6.696;2023-03-24T03:15:06;13.10;99.90
7317;DHT22;3699;51.462;6.696;2023-03-24T03:17:36;13.20;99.90
7317;DHT22;3699;51.462;6.696;2023-03-24T03:20:07;13.20;99.90
7317;DHT22;3699;51.462;6.696;2023-03-24T03:22:40;13.20;99.90
7317;DHT22;3699;51.462;6.696;2023-03-24T03:25:10;13.30;99.90
7317;DHT22;3699;51.462;6.696;2023-03-24T03:27:41;13.40;99.90
7317;DHT22;3699;51.462;6.696;2023-03-24T03:30:14;13.40;99.90
7317;DHT22;3699;51.462;6.696;2023-03-24T03:32:47;13.50;99.90
7317;DHT22;3699;51.462;6.696;2023-03-24T03:35:22;13.50;99.90
7317;DHT22;3699;51.462;6.696;2023-03-24T03:37:55;13.60;99.90
7317;DHT22;3699;51.462;6.696;2023-03-24T03:40:31;13.60;99.90
7317;DHT22;3699;51.462;6.696;2023-03-24T03:43:00;13.70;99.90
7317;DHT22;3699;51.462;6.696;2023-03-24T03:45:27;13.80;99.90
7317;DHT22;3699;51.462;6.696;2023-03-24T03:47:54;13.80;99.90
7317;DHT22;3699;51.462;6.696;2023-03-24T03:50:21;13.80;99.90
7317;DHT22;3699;51.462;6.696;2023-03-24T03:52:49;13.90;99.90
7317;DHT22;3699;51.462;6.696;2023-03-24T03:55:16;13.90;99.90
7317;DHT22;3699;51.462;6.696;2023-03-24T03:57:45;14.00;99.90
7317;DHT22;3699;51.462;6.696;2023-03-24T04:00:14;14.00;99.90
7317;DHT22;3699;51.462;6.696;2023-03-24T04:02:49;14.00;99.90
7317;DHT22;3699;51.462;6.696;2023-03-24T04:05:29;14.00;99.90
7317;DHT22;3699;51.462;6.696;2023-03-24T04:08:20;14.00;99.90
7317;DHT22;3699;51.462;6.696;2023-03-24T04:11:12;14.00;99.90
7317;DHT22;3699;51.462;6.696;2023-03-24T04:13:49;14.00;99.90
7317;DHT22;3699;51.462;6.696;2023-03-24T04:16:30;14.00;99.90
7317;DHT22;3699;51.462;6.696;2023-03-24T04:19:08;12.70;99.90
7317;DHT22;3699;51.462;6.696;2023-03-24T04:22:01;13.90;99.90
7317;DHT22;3699;51.462;6.696;2023-03-24T04:24:37;13.90;99.90
7317;DHT22;3699;51.462;6.696;2023-03-24T04:27:10;13.80;99.90
7317;DHT22;3699;51.462;6.696;2023-03-24T04:29:48;13.80;99.90
7317;DHT22;3699;51.462;6.696;2023-03-24T04:32:22;13.70;99.90
7317;DHT22;3699;51.462;6.696;2023-03-24T04:34:55;13.70;99.90
7317;DHT22;3699;51.462;6.696;2023-03-24T04:37:28;13.70;99.90
7317;DHT22;3699;51.462;6.696;2023-03-24T04:39:58;13.70;99.90
7317;DHT22;3699;51.462;6.696;2023-03-24T04:42:31;13.70;99.90
7317;DHT22;3699;51.462;6.696;2023-03-24T04:45:02;13.60;99.90
7317;DHT22;3699;51.462;6.696;2023-03-24T04:47:33;13.60;99.90
7317;DHT22;3699;51.462;6.696;2023-03-24T04:50:04;13.60;99.90
7317;DHT22;3699;51.462;6.696;2023-03-24T04:52:33;13.60;99.90
7317;DHT22;3699;51.462;6.696;2023-03-24T04:55:00;13.50;99.90
7317;DHT22;3699;51.462;6.696;2023-03-24T04:57:28;13.50;99.90
7317;DHT22;3699;51.462;6.696;2023-03-24T04:59:54;13.40;99.90
7317;DHT22;3699;51.462;6.696;2023-03-24T05:02:22;13.40;99.90
7317;DHT22;3699;51.462;6.696;2023-03-24T05:04:49;13.30;99.90
7317;DHT22;3699;51.462;6.696;2023-03-24T05:07:17;13.30;99.90
7317;DHT22;3699;51.462;6.696;2023-03-24T05:09:43;13.30;99.90
7317;DHT22;3699;51.462;6.696;2023-03-24T05:12:10;13.30;99.90
7317;DHT22;3699;51.462;6.696;2023-03-24T05:14:38;13.20;99.90
7317;DHT22;3699;51.462;6.696;2023-03-24T05:17:05;13.20;99.90
7317;DHT22;3699;51.462;6.696;2023-03-24T05:19:33;13.10;99.90
7317;DHT22;3699;51.462;6.696;2023-03-24T05:21:59;13.00;99.90
7317;DHT22;3699;51.462;6.696;2023-03-24T05:24:27;12.90;99.90
7317;DHT22;3699;51.462;6.696;2023-03-24T05:26:53;12.90;99.90
7317;DHT22;3699;51.462;6.696;2023-03-24T05:29:20;12.70;99.90
7317;DHT22;3699;51.462;6.696;2023-03-24T05:31:47;12.70;99.90
7317;DHT22;3699;51.462;6.696;2023-03-24T05:34:13;12.50;99.90
7317;DHT22;3699;51.462;6.696;2023-03-24T05:36:42;12.40;99.90
7317;DHT22;3699;51.462;6.696;2023-03-24T05:39:08;12.30;99.90
7317;DHT22;3699;51.462;6.696;2023-03-24T05:41:35;12.20;99.90
7317;DHT22;3699;51.462;6.696;2023-03-24T05:44:02;12.10;99.90
7317;DHT22;3699;51.462;6.696;2023-03-24T05:46:28;12.00;99.90
7317;DHT22;3699;51.462;6.696;2023-03-24T05:48:55;12.00;99.90
7317;DHT22;3699;51.462;6.696;2023-03-24T05:51:22;11.90;99.90
7317;DHT22;3699;51.462;6.696;2023-03-24T05:53:50;11.80;99.90
7317;DHT22;3699;51.462;6.696;2023-03-24T05:56:17;11.80;99.90
7317;DHT22;3699;51.462;6.696;2023-03-24T05:58:44;11.70;99.90
7317;DHT22;3699;51.462;6.696;2023-03-24T06:01:11;11.70;99.90
7317;DHT22;3699;51.462;6.696;2023-03-24T06:03:38;11.60;99.90
7317;DHT22;3699;51.462;6.696;2023-03-24T06:06:06;11.60;99.90
7317;DHT22;3699;51.462;6.696;2023-03-24T06:08:33;11.60;99.90
7317;DHT22;3699;51.462;6.696;2023-03-24T06:11:02;11.70;99.90
7317;DHT22;3699;51.462;6.696;2023-03-24T06:13:29;11.70;99.90
7317;DHT22;3699;51.462;6.696;2023-03-24T06:15:57;11.90;99.90
7317;DHT22;3699;51.462;6.696;2023-03-24T06:18:24;12.00;99.90
7317;DHT22;3699;51.462;6.696;2023-03-24T06:20:52;12.00;99.90
7317;DHT22;3699;51.462;6.696;2023-03-24T06:23:26;12.10;99.90
7317;DHT22;3699;51.462;6.696;2023-03-24T06:25:54;12.30;99.90
7317;DHT22;3699;51.462;6.696;2023-03-24T06:28:24;12.60;99.90
7317;DHT22;3699;51.462;6.696;2023-03-24T06:30:54;12.80;99.90
7317;DHT22;3699;51.462;6.696;2023-03-24T06:33:23;13.00;99.90
7317;DHT22;3699;51.462;6.696;2023-03-24T06:35:50;13.30;99.90
7317;DHT22;3699;51.462;6.696;2023-03-24T06:38:17;13.70;99.90
7317;DHT22;3699;51.462;6.696;2023-03-24T06:40:44;14.10;99.90
7317;DHT22;3699;51.462;6.696;2023-03-24T06:43:11;14.60;99.90
7317;DHT22;3699;51.462;6.696;2023-03-24T06:45:39;14.90;99.90
7317;DHT22;3699;51.462;6.696;2023-03-24T06:48:05;15.20;99.90
7317;DHT22;3699;51.462;6.696;2023-03-24T06:50:32;15.50;99.90
7317;DHT22;3699;51.462;6.696;2023-03-24T06:53:00;15.80;99.90
7317;DHT22;3699;51.462;6.696;2023-03-24T06:55:27;16.00;99.90
7317;DHT22;3699;51.462;6.696;2023-03-24T06:57:53;16.20;99.90
7317;DHT22;3699;51.462;6.696;2023-03-24T07:00:20;16.20;99.90
7317;DHT22;3699;51.462;6.696;2023-03-24T07:02:49;16.40;99.90
7317;DHT22;3699;51.462;6.696;2023-03-24T07:05:17;16.50;99.90
7317;DHT22;3699;51.462;6.696;2023-03-24T07:07:43;16.70;99.90
7317;DHT22;3699;51.462;6.696;2023-03-24T07:10:10;16.90;99.90
7317;DHT22;3699;51.462;6.696;2023-03-24T07:12:38;17.00;99.90
7317;DHT22;3699;51.462;6.696;2023-03-24T07:15:06;17.10;99.90
7317;DHT22;3699;51.462;6.696;2023-03-24T07:17:33;17.20;99.90
7317;DHT22;3699;51.462;6.696;2023-03-24T07:20:02;17.40;99.90
7317;DHT22;3699;51.462;6.696;2023-03-24T07:22:32;17.50;99.90
7317;DHT22;3699;51.462;6.696;2023-03-24T07:25:00;17.70;99.90
7317;DHT22;3699;51.462;6.696;2023-03-24T07:27:29;17.70;99.40
7317;DHT22;3699;51.462;6.696;2023-03-24T07:29:57;17.80;99.30
7317;DHT22;3699;51.462;6.696;2023-03-24T07:32:23;18.00;98.70
7317;DHT22;3699;51.462;6.696;2023-03-24T07:34:50;18.20;94.70
7317;DHT22;3699;51.462;6.696;2023-03-24T07:37:18;18.20;92.40
7317;DHT22;3699;51.462;6.696;2023-03-24T07:39:46;18.10;92.20
7317;DHT22;3699;51.462;6.696;2023-03-24T07:42:12;18.10;94.70
7317;DHT22;3699;51.462;6.696;2023-03-24T07:44:39;18.10;94.40
7317;DHT22;3699;51.462;6.696;2023-03-24T07:47:06;18.20;92.80
7317;DHT22;3699;51.462;6.696;2023-03-24T07:49:33;18.20;91.00
7317;DHT22;3699;51.462;6.696;2023-03-24T07:51:59;18.20;91.10
7317;DHT22;3699;51.462;6.696;2023-03-24T07:54:32;18.30;91.40
7317;DHT22;3699;51.462;6.696;2023-03-24T07:56:59;18.30;86.10
7317;DHT22;3699;51.462;6.696;2023-03-24T07:59:26;18.30;92.30
7317;DHT22;3699;51.462;6.696;2023-03-24T08:01:52;18.30;88.00
7317;DHT22;3699;51.462;6.696;2023-03-24T08:04:19;18.40;90.80
7317;DHT22;3699;51.462;6.696;2023-03-24T08:06:46;18.40;90.80
7317;DHT22;3699;51.462;6.696;2023-03-24T08:09:13;18.20;91.80
7317;DHT22;3699;51.462;6.696;2023-03-24T08:11:41;18.00;93.10
7317;DHT22;3699;51.462;6.696;2023-03-24T08:14:08;17.90;96.60
7317;DHT22;3699;51.462;6.696;2023-03-24T08:16:35;17.80;93.80
7317;DHT22;3699;51.462;6.696;2023-03-24T08:19:03;17.60;95.20
7317;DHT22;3699;51.462;6.696;2023-03-24T08:21:30;17.10;95.00
7317;DHT22;3699;51.462;6.696;2023-03-24T08:23:57;16.60;99.80
7317;DHT22;3699;51.462;6.696;2023-03-24T08:26:24;16.20;99.90
7317;DHT22;3699;51.462;6.696;2023-03-24T08:28:53;16.00;99.90
7317;DHT22;3699;51.462;6.696;2023-03-24T08:31:19;15.80;99.90
7317;DHT22;3699;51.462;6.696;2023-03-24T08:33:46;15.70;99.90
7317;DHT22;3699;51.462;6.696;2023-03-24T08:36:13;15.70;99.90
7317;DHT22;3699;51.462;6.696;2023-03-24T08:38:40;15.90;99.90
7317;DHT22;3699;51.462;6.696;2023-03-24T08:41:06;16.10;99.90
7317;DHT22;3699;51.462;6.696;2023-03-24T08:43:34;16.20;99.90
7317;DHT22;3699;51.462;6.696;2023-03-24T08:46:06;16.30;99.90
7317;DHT22;3699;51.462;6.696;2023-03-24T08:48:33;16.50;99.90
7317;DHT22;3699;51.462;6.696;2023-03-24T08:51:09;16.70;99.90
7317;DHT22;3699;51.462;6.696;2023-03-24T08:53:36;17.00;99.90
7317;DHT22;3699;51.462;6.696;2023-03-24T08:56:03;17.10;99.90
7317;DHT22;3699;51.462;6.696;2023-03-24T08:58:29;17.20;99.90
7317;DHT22;3699;51.462;6.696;2023-03-24T09:00:56;17.20;99.90
7317;DHT22;3699;51.462;6.696;2023-03-24T09:03:24;17.30;99.90
7317;DHT22;3699;51.462;6.696;2023-03-24T09:05:54;17.30;99.90
7317;DHT22;3699;51.462;6.696;2023-03-24T09:08:21;17.40;99.90
7317;DHT22;3699;51.462;6.696;2023-03-24T09:10:48;17.60;99.90
7317;DHT22;3699;51.462;6.696;2023-03-24T09:13:17;17.70;99.90
7317;DHT22;3699;51.462;6.696;2023-03-24T09:15:48;17.60;99.90
7317;DHT22;3699;51.462;6.696;2023-03-24T09:18:16;17.40;99.90
7317;DHT22;3699;51.462;6.696;2023-03-24T09:20:44;17.10;99.90
7317;DHT22;3699;51.462;6.696;2023-03-24T09:23:11;17.00;99.90
7317;DHT22;3699;51.462;6.696;2023-03-24T09:25:38;16.80;99.90
7317;DHT22;3699;51.462;6.696;2023-03-24T09:28:05;16.70;99.90
7317;DHT22;3699;51.462;6.696;2023-03-24T09:30:32;16.60;99.90
7317;DHT22;3699;51.462;6.696;2023-03-24T09:32:59;16.60;99.90
7317;DHT22;3699;51.462;6.696;2023-03-24T09:35:26;16.70;99.90
7317;DHT22;3699;51.462;6.696;2023-03-24T09:37:55;16.80;99.90
7317;DHT22;3699;51.462;6.696;2023-03-24T09:40:24;16.70;99.90
7317;DHT22;3699;51.462;6.696;2023-03-24T09:42:54;16.60;99.90
7317;DHT22;3699;51.462;6.696;2023-03-24T09:45:23;16.60;99.90
7317;DHT22;3699;51.462;6.696;2023-03-24T09:47:55;16.50;99.90
7317;DHT22;3699;51.462;6.696;2023-03-24T09:50:24;16.30;99.90
7317;DHT22;3699;51.462;6.696;2023-03-24T09:52:55;16.30;99.90
7317;DHT22;3699;51.462;6.696;2023-03-24T09:55:26;17.20;99.90
7317;DHT22;3699;51.462;6.696;2023-03-24T09:57:57;17.10;99.90
7317;DHT22;3699;51.462;6.696;2023-03-24T10:00:26;16.10;99.90
7317;DHT22;3699;51.462;6.696;2023-03-24T10:02:57;16.00;99.90
7317;DHT22;3699;51.462;6.696;2023-03-24T10:05:27;16.00;99.90
7317;DHT22;3699;51.462;6.696;2023-03-24T10:08:01;15.90;99.90
7317;DHT22;3699;51.462;6.696;2023-03-24T10:10:35;16.20;99.90
7317;DHT22;3699;51.462;6.696;2023-03-24T10:13:11;16.50;99.90
7317;DHT22;3699;51.462;6.696;2023-03-24T10:15:47;16.70;99.90
7317;DHT22;3699;51.462;6.696;2023-03-24T10:18:27;16.80;99.90
7317;DHT22;3699;51.462;6.696;2023-03-24T10:21:01;16.90;99.90
7317;DHT22;3699;51.462;6.696;2023-03-24T10:23:35;16.90;99.90
7317;DHT22;3699;51.462;6.696;2023-03-24T10:26:06;17.00;99.90
7317;DHT22;3699;51.462;6.696;2023-03-24T10:28:40;17.20;99.90
7317;DHT22;3699;51.462;6.696;2023-03-24T10:31:10;17.40;99.90
7317;DHT22;3699;51.462;6.696;2023-03-24T10:33:41;17.50;94.50
7317;DHT22;3699;51.462;6.696;2023-03-24T10:36:10;17.80;90.80
7317;DHT22;3699;51.462;6.696;2023-03-24T10:38:40;17.90;89.60
7317;DHT22;3699;51.462;6.696;2023-03-24T10:41:13;17.90;80.00
7317;DHT22;3699;51.462;6.696;2023-03-24T10:43:42;18.00;84.60
7317;DHT22;3699;51.462;6.696;2023-03-24T10:46:11;17.90;76.10
7317;DHT22;3699;51.462;6.696;2023-03-24T10:48:42;17.70;85.40
7317;DHT22;3699;51.462;6.696;2023-03-24T10:51:14;17.60;86.80
7317;DHT22;3699;51.462;6.696;2023-03-24T10:53:43;17.20;82.80
7317;DHT22;3699;51.462;6.696;2023-03-24T10:56:15;17.00;86.40
7317;DHT22;3699;51.462;6.696;2023-03-24T10:58:43;16.70;91.80
7317;DHT22;3699;51.462;6.696;2023-03-24T11:01:21;16.60;93.30
7317;DHT22;3699;51.462;6.696;2023-03-24T11:03:49;16.40;94.90
7317;DHT22;3699;51.462;6.696;2023-03-24T11:06:19;16.30;96.40
7317;DHT22;3699;51.462;6.696;2023-03-24T11:09:07;16.30;97.40
7317;DHT22;3699;51.462;6.696;2023-03-24T11:11:34;16.40;99.20
7317;DHT22;3699;51.462;6.696;2023-03-24T11:14:02;16.70;99.90
7317;DHT22;3699;51.462;6.696;2023-03-24T11:16:30;16.90;97.50
7317;DHT22;3699;51.462;6.696;2023-03-24T11:18:59;17.10;94.70
7317;DHT22;3699;51.462;6.696;2023-03-24T11:21:27;17.10;90.90
7317;DHT22;3699;51.462;6.696;2023-03-24T11:23:58;17.00;91.30
7317;DHT22;3699;51.462;6.696;2023-03-24T11:26:29;17.10;93.10
7317;DHT22;3699;51.462;6.696;2023-03-24T11:28:59;17.10;91.10
7317;DHT22;3699;51.462;6.696;2023-03-24T11:31:27;17.20;90.70
7317;DHT22;3699;51.462;6.696;2023-03-24T11:33:57;17.20;89.30
7317;DHT22;3699;51.462;6.696;2023-03-24T11:36:43;17.10;88.00
7317;DHT22;3699;51.462;6.696;2023-03-24T11:39:16;17.00;88.60
7317;DHT22;3699;51.462;6.696;2023-03-24T11:41:51;16.90;90.00
7317;DHT22;3699;51.462;6.696;2023-03-24T11:44:21;16.80;90.20
7317;DHT22;3699;51.462;6.696;2023-03-24T11:46:51;16.70;90.60
7317;DHT22;3699;51.462;6.696;2023-03-24T11:49:20;16.70;91.10
7317;DHT22;3699;51.462;6.696;2023-03-24T11:51:50;16.50;91.20
7317;DHT22;3699;51.462;6.696;2023-03-24T11:54:22;16.30;94.10
7317;DHT22;3699;51.462;6.696;2023-03-24T11:56:51;16.30;94.40
7317;DHT22;3699;51.462;6.696;2023-03-24T11:59:27;16.30;93.50
7317;DHT22;3699;51.462;6.696;2023-03-24T12:02:01;16.30;95.20
7317;DHT22;3699;51.462;6.696;2023-03-24T12:04:43;16.30;96.90
7317;DHT22;3699;51.462;6.696;2023-03-24T12:07:39;16.40;99.90
7317;DHT22;3699;51.462;6.696;2023-03-24T12:10:18;16.50;99.30
7317;DHT22;3699;51.462;6.696;2023-03-24T12:12:50;16.70;99.90
7317;DHT22;3699;51.462;6.696;2023-03-24T12:15:35;16.80;97.20
7317;DHT22;3699;51.462;6.696;2023-03-24T12:18:15;16.90;94.10
7317;DHT22;3699;51.462;6.696;2023-03-24T12:20:49;17.10;94.00
7317;DHT22;3699;51.462;6.696;2023-03-24T12:23:26;17.30;93.90
7317;DHT22;3699;51.462;6.696;2023-03-24T12:26:14;17.40;92.00
7317;DHT22;3699;51.462;6.696;2023-03-24T12:28:50;17.40;82.50
7317;DHT22;3699;51.462;6.696;2023-03-24T12:31:51;17.40;91.60
7317;DHT22;3699;51.462;6.696;2023-03-24T12:34:45;17.60;91.50
7317;DHT22;3699;51.462;6.696;2023-03-24T12:37:23;17.70;84.60
7317;DHT22;3699;51.462;6.696;2023-03-24T12:39:59;17.80;78.30
7317;DHT22;3699;51.462;6.696;2023-03-24T12:42:34;17.80;71.10
7317;DHT22;3699;51.462;6.696;2023-03-24T12:45:13;17.80;64.50
7317;DHT22;3699;51.462;6.696;2023-03-24T12:50:56;17.50;65.60
7317;DHT22;3699;51.462;6.696;2023-03-24T12:53:34;17.20;65.30
7317;DHT22;3699;51.462;6.696;2023-03-24T12:56:09;17.10;72.90
7317;DHT22;3699;51.462;6.696;2023-03-24T12:58:41;17.00;72.80
7317;DHT22;3699;51.462;6.696;2023-03-24T13:01:18;17.10;80.40
7317;DHT22;3699;51.462;6.696;2023-03-24T13:03:46;17.10;78.80
7317;DHT22;3699;51.462;6.696;2023-03-24T13:06:18;17.10;77.40
7317;DHT22;3699;51.462;6.696;2023-03-24T13:08:56;17.00;73.40
7317;DHT22;3699;51.462;6.696;2023-03-24T13:11:35;16.80;75.60
7317;DHT22;3699;51.462;6.696;2023-03-24T13:14:10;16.70;80.80
7317;DHT22;3699;51.462;6.696;2023-03-24T13:16:38;16.50;88.40
7317;DHT22;3699;51.462;6.696;2023-03-24T13:19:15;16.30;94.90
7317;DHT22;3699;51.462;6.696;2023-03-24T13:21:43;16.20;99.90
7317;DHT22;3699;51.462;6.696;2023-03-24T13:24:12;15.90;99.90
7317;DHT22;3699;51.462;6.696;2023-03-24T13:26:41;15.90;99.90
7317;DHT22;3699;51.462;6.696;2023-03-24T13:29:24;15.60;99.90
7317;DHT22;3699;51.462;6.696;2023-03-24T13:31:55;15.50;99.90
7317;DHT22;3699;51.462;6.696;2023-03-24T13:34:28;15.50;99.90
7317;DHT22;3699;51.462;6.696;2023-03-24T13:36:59;15.60;99.90
7317;DHT22;3699;51.462;6.696;2023-03-24T13:39:29;15.60;99.90
7317;DHT22;3699;51.462;6.696;2023-03-24T13:41:57;15.70;99.90
7317;DHT22;3699;51.462;6.696;2023-03-24T13:44:29;15.90;99.90
7317;DHT22;3699;51.462;6.696;2023-03-24T13:47:04;16.10;99.90
7317;DHT22;3699;51.462;6.696;2023-03-24T13:52:02;16.40;99.90
7317;DHT22;3699;51.462;6.696;2023-03-24T13:54:31;16.40;99.90
7317;DHT22;3699;51.462;6.696;2023-03-24T13:57:03;16.10;99.90
7317;DHT22;3699;51.462;6.696;2023-03-24T13:59:39;17.40;99.90
7317;DHT22;3699;51.462;6.696;2023-03-24T14:02:18;13.90;99.90
7317;DHT22;3699;51.462;6.696;2023-03-24T14:04:47;15.60;99.90
7317;DHT22;3699;51.462;6.696;2023-03-24T14:07:42;15.20;99.90
7317;DHT22;3699;51.462;6.696;2023-03-24T14:10:39;15.00;99.90
7317;DHT22;3699;51.462;6.696;2023-03-24T14:13:35;14.70;99.90
7317;DHT22;3699;51.462;6.696;2023-03-24T14:16:32;14.40;99.90
7317;DHT22;3699;51.462;6.696;2023-03-24T14:19:08;14.10;99.90
7317;DHT22;3699;51.462;6.696;2023-03-24T14:21:38;14.00;99.90
7317;DHT22;3699;51.462;6.696;2023-03-24T14:24:15;14.10;99.90
7317;DHT22;3699;51.462;6.696;2023-03-24T14:26:42;14.20;99.90
7317;DHT22;3699;51.462;6.696;2023-03-24T14:29:36;14.30;99.90
7317;DHT22;3699;51.462;6.696;2023-03-24T14:32:05;14.30;99.90
7317;DHT22;3699;51.462;6.696;2023-03-24T14:34:33;14.20;99.90
7317;DHT22;3699;51.462;6.696;2023-03-24T14:37:03;14.20;99.90
7317;DHT22;3699;51.462;6.696;2023-03-24T14:39:38;14.20;99.90
7317;DHT22;3699;51.462;6.696;2023-03-24T14:42:27;14.40;99.90
7317;DHT22;3699;51.462;6.696;2023-03-24T14:44:55;14.60;99.90
7317;DHT22;3699;51.462;6.696;2023-03-24T14:47:24;14.70;99.90
7317;DHT22;3699;51.462;6.696;2023-03-24T14:49:53;14.80;99.90
7317;DHT22;3699;51.462;6.696;2023-03-24T14:52:22;15.00;99.90
7317;DHT22;3699;51.462;6.696;2023-03-24T14:54:52;15.00;99.90
7317;DHT22;3699;51.462;6.696;2023-03-24T14:57:22;15.10;99.90
7317;DHT22;3699;51.462;6.696;2023-03-24T14:59:57;15.10;99.90
7317;DHT22;3699;51.462;6.696;2023-03-24T15:02:34;15.20;99.90
7317;DHT22;3699;51.462;6.696;2023-03-24T15:05:23;15.30;99.90
7317;DHT22;3699;51.462;6.696;2023-03-24T15:08:10;15.30;99.90
7317;DHT22;3699;51.462;6.696;2023-03-24T15:10:41;15.30;99.90
7317;DHT22;3699;51.462;6.696;2023-03-24T15:13:30;15.20;99.90
7317;DHT22;3699;51.462;6.696;2023-03-24T15:15:59;15.10;99.90
7317;DHT22;3699;51.462;6.696;2023-03-24T15:18:28;15.00;99.90
7317;DHT22;3699;51.462;6.696;2023-03-24T15:20:55;15.00;99.90
7317;DHT22;3699;51.462;6.696;2023-03-24T15:23:23;14.90;99.90
7317;DHT22;3699;51.462;6.696;2023-03-24T15:25:53;14.80;99.90
7317;DHT22;3699;51.462;6.696;2023-03-24T15:28:21;14.80;99.90
7317;DHT22;3699;51.462;6.696;2023-03-24T15:30:50;14.70;99.90
7317;DHT22;3699;51.462;6.696;2023-03-24T15:33:17;14.70;99.90
7317;DHT22;3699;51.462;6.696;2023-03-24T15:35:46;14.60;99.90
7317;DHT22;3699;51.462;6.696;2023-03-24T15:38:25;14.30;99.90
7317;DHT22;3699;51.462;6.696;2023-03-24T15:40:56;14.40;99.90
7317;DHT22;3699;51.462;6.696;2023-03-24T15:43:24;14.40;99.90
7317;DHT22;3699;51.462;6.696;2023-03-24T15:45:52;14.30;99.90
7317;DHT22;3699;51.462;6.696;2023-03-24T15:48:21;14.30;99.90
7317;DHT22;3699;51.462;6.696;2023-03-24T15:50:58;14.20;99.90
7317;DHT22;3699;51.462;6.696;2023-03-24T15:53:27;14.10;99.90
7317;DHT22;3699;51.462;6.696;2023-03-24T15:56:11;13.90;99.90
7317;DHT22;3699;51.462;6.696;2023-03-24T15:58:46;13.80;99.90
7317;DHT22;3699;51.462;6.696;2023-03-24T16:01:15;13.70;99.90
7317;DHT22;3699;51.462;6.696;2023-03-24T16:03:44;13.70;99.90
7317;DHT22;3699;51.462;6.696;2023-03-24T16:06:15;13.60;99.90
7317;DHT22;3699;51.462;6.696;2023-03-24T16:08:50;13.60;99.90
7317;DHT22;3699;51.462;6.696;2023-03-24T16:11:16;13.60;99.90
7317;DHT22;3699;51.462;6.696;2023-03-24T16:13:44;13.60;99.90
7317;DHT22;3699;51.462;6.696;2023-03-24T16:16:22;13.60;99.90
7317;DHT22;3699;51.462;6.696;2023-03-24T16:18:49;13.60;99.90
7317;DHT22;3699;51.462;6.696;2023-03-24T16:21:19;13.60;99.90
7317;DHT22;3699;51.462;6.696;2023-03-24T16:23:47;13.50;99.90
7317;DHT22;3699;51.462;6.696;2023-03-24T16:26:18;13.60;99.90
7317;DHT22;3699;51.462;6.696;2023-03-24T16:28:46;13.70;99.90
7317;DHT22;3699;51.462;6.696;2023-03-24T16:31:18;13.70;99.90
7317;DHT22;3699;51.462;6.696;2023-03-24T16:33:47;13.70;99.90
7317;DHT22;3699;51.462;6.696;2023-03-24T16:36:14;13.70;99.90
7317;DHT22;3699;51.462;6.696;2023-03-24T16:38:43;13.80;99.90
7317;DHT22;3699;51.462;6.696;2023-03-24T16:41:11;13.70;99.90